createdAt,value
2017-04-04T00:00:05.020Z,1026.32
2017-04-04T00:01:13.910Z,1026.28
2017-04-04T00:02:22.952Z,1026.32
2017-04-04T00:03:31.840Z,1026.33
2017-04-04T00:04:41.051Z,1026.31
2017-04-04T00:05:49.942Z,1026.29
2017-04-04T00:06:58.832Z,1026.3
2017-04-04T00:08:07.774Z,1026.32
2017-04-04T00:09:16.659Z,1026.27
2017-04-04T00:10:25.551Z,1026.31
2017-04-04T00:11:34.761Z,1026.29
2017-04-04T00:12:43.646Z,1026.31
2017-04-04T00:13:52.684Z,1026.26
2017-04-04T00:15:01.573Z,1026.23
2017-04-04T00:16:10.461Z,1026.23
2017-04-04T00:17:19.351Z,1026.21
2017-04-04T00:18:28.239Z,1026.25
2017-04-04T00:19:37.128Z,1026.23
2017-04-04T00:20:46.018Z,1026.25
2017-04-04T00:21:54.908Z,1026.28
2017-04-04T00:23:04.446Z,1026.24
2017-04-04T00:24:13.991Z,1026.28
2017-04-04T00:25:23.028Z,1026.22
2017-04-04T00:26:31.918Z,1026.25
2017-04-04T00:27:40.808Z,1026.25
2017-04-04T00:28:49.696Z,1026.28
2017-04-04T00:29:58.584Z,1026.26
2017-04-04T00:31:07.721Z,1026.28
2017-04-04T00:32:16.610Z,1026.26
2017-04-04T00:33:25.495Z,1026.23
2017-04-04T00:34:34.383Z,1026.24
2017-04-04T00:35:43.270Z,1026.21
2017-04-04T00:36:52.263Z,1026.23
2017-04-04T00:38:01.477Z,1026.25
2017-04-04T00:39:10.362Z,1026.21
2017-04-04T00:40:19.246Z,1026.21
2017-04-04T00:41:28.137Z,1026.22
2017-04-04T00:42:37.407Z,1026.26
2017-04-04T00:43:46.296Z,1026.27
2017-04-04T00:44:55.180Z,1026.3
2017-04-04T00:46:04.067Z,1026.25
2017-04-04T00:47:12.953Z,1026.28
2017-04-04T00:48:21.947Z,1026.26
2017-04-04T00:49:30.841Z,1026.26
2017-04-04T00:50:39.729Z,1026.23
2017-04-04T00:51:48.939Z,1026.23
2017-04-04T00:52:57.828Z,1026.22
2017-04-04T00:54:06.973Z,1026.24
2017-04-04T01:02:21.376Z,1026.2
2017-04-04T01:03:30.271Z,1026.21
2017-04-04T01:04:39.158Z,1026.17
2017-04-04T01:05:48.043Z,1026.2
2017-04-04T01:06:56.937Z,1026.21
2017-04-04T01:08:06.298Z,1026.2
2017-04-04T01:09:15.187Z,1026.21
2017-04-04T01:10:24.072Z,1026.2
2017-04-04T01:11:33.283Z,1026.2
2017-04-04T01:12:42.208Z,1026.26
2017-04-04T01:13:51.291Z,1026.25
2017-04-04T01:15:00.177Z,1026.26
2017-04-04T01:16:09.068Z,1026.19
2017-04-04T01:17:18.610Z,1026.18
2017-04-04T01:18:27.830Z,1026.19
2017-04-04T01:19:36.875Z,1026.18
2017-04-04T01:20:45.762Z,1026.22
2017-04-04T01:21:54.656Z,1026.23
2017-04-04T01:23:04.518Z,1026.24
2017-04-04T01:24:13.404Z,1026.29
2017-04-04T01:25:22.438Z,1026.25
2017-04-04T01:26:31.322Z,1026.26
2017-04-04T01:27:40.202Z,1026.21
2017-04-04T01:28:49.088Z,1026.27
2017-04-04T01:29:57.974Z,1026.24
2017-04-04T01:31:07.562Z,1026.23
2017-04-04T01:32:16.448Z,1026.24
2017-04-04T01:33:25.336Z,1026.25
2017-04-04T01:34:34.228Z,1026.22
2017-04-04T01:35:43.111Z,1026.24
2017-04-04T01:36:52.107Z,1026.26
2017-04-04T01:38:01.318Z,1026.23
2017-04-04T01:39:10.857Z,1026.22
2017-04-04T01:40:19.742Z,1026.22
2017-04-04T01:41:28.638Z,1026.18
2017-04-04T01:42:37.671Z,1026.18
2017-04-04T01:43:46.559Z,1026.19
2017-04-04T01:44:55.448Z,1026.17
2017-04-04T01:46:04.661Z,1026.16
2017-04-04T01:47:13.555Z,1026.13
2017-04-04T01:48:22.959Z,1026.11
2017-04-04T01:49:31.844Z,1026.12
2017-04-04T01:50:40.727Z,1026.15
2017-04-04T01:51:49.939Z,1026.16
2017-04-04T01:52:59.158Z,1026.12
2017-04-04T01:54:08.417Z,1026.12
2017-04-04T01:55:17.301Z,1026.11
2017-04-04T01:56:26.185Z,1026.16
2017-04-04T01:57:35.072Z,1026.1
2017-04-04T01:58:43.954Z,1026.12
2017-04-04T01:59:53.328Z,1026.11
2017-04-04T02:01:02.540Z,1026.09
2017-04-04T02:02:11.427Z,1026.13
2017-04-04T02:03:20.318Z,1026.08
2017-04-04T02:04:29.207Z,1026.08
2017-04-04T02:05:38.773Z,1026.05
2017-04-04T02:06:47.660Z,1026.09
2017-04-04T02:07:56.874Z,1026.02
2017-04-04T02:09:05.760Z,1026.08
2017-04-04T02:10:14.651Z,1026.07
2017-04-04T02:11:23.683Z,1026.09
2017-04-04T02:12:32.573Z,1026.1
2017-04-04T02:13:41.784Z,1026.04
2017-04-04T02:14:50.674Z,1026.09
2017-04-04T02:15:59.597Z,1026.08
2017-04-04T02:17:08.911Z,1026.12
2017-04-04T02:18:18.125Z,1026.12
2017-04-04T02:19:27.011Z,1026.09
2017-04-04T02:20:35.895Z,1026.09
2017-04-04T02:21:44.789Z,1026.05
2017-04-04T02:22:54.422Z,1026.06
2017-04-04T02:24:03.310Z,1026.06
2017-04-04T02:25:12.197Z,1026.05
2017-04-04T02:26:21.406Z,1026.01
2017-04-04T02:27:30.293Z,1026.02
2017-04-04T02:28:39.328Z,1026
2017-04-04T02:29:48.213Z,1025.98
2017-04-04T02:30:57.099Z,1025.96
2017-04-04T02:32:06.631Z,1026.02
2017-04-04T02:33:15.841Z,1026.03
2017-04-04T02:34:25.571Z,1025.99
2017-04-04T02:35:34.791Z,1026
2017-04-04T02:36:43.678Z,1026
2017-04-04T02:37:52.565Z,1026
2017-04-04T02:39:01.451Z,1026
2017-04-04T02:40:10.914Z,1025.97
2017-04-04T02:41:19.840Z,1025.95
2017-04-04T02:42:29.052Z,1025.98
2017-04-04T02:43:37.977Z,1025.96
2017-04-04T02:44:46.862Z,1025.94
2017-04-04T02:45:56.372Z,1025.91
2017-04-04T02:47:05.587Z,1025.88
2017-04-04T02:48:14.479Z,1025.83
2017-04-04T02:49:23.364Z,1025.84
2017-04-04T02:50:32.255Z,1025.86
2017-04-04T02:51:41.564Z,1025.8
2017-04-04T02:52:50.445Z,1025.8
2017-04-04T02:53:59.654Z,1025.76
2017-04-04T02:55:08.865Z,1025.74
2017-04-04T02:56:17.750Z,1025.78
2017-04-04T02:57:27.064Z,1025.76
2017-04-04T02:58:35.949Z,1025.74
2017-04-04T02:59:44.833Z,1025.72
2017-04-04T03:00:53.721Z,1025.76
2017-04-04T03:02:02.933Z,1025.75
2017-04-04T03:03:11.818Z,1025.72
2017-04-04T03:04:20.704Z,1025.74
2017-04-04T03:05:29.589Z,1025.74
2017-04-04T03:06:38.477Z,1025.77
2017-04-04T03:07:47.372Z,1025.77
2017-04-04T03:08:56.255Z,1025.76
2017-04-04T03:10:05.462Z,1025.75
2017-04-04T03:11:14.350Z,1025.72
2017-04-04T03:12:23.568Z,1025.79
2017-04-04T03:13:32.783Z,1025.76
2017-04-04T03:14:41.717Z,1025.76
2017-04-04T03:15:50.926Z,1025.73
2017-04-04T03:16:59.820Z,1025.75
2017-04-04T03:18:08.709Z,1025.73
2017-04-04T03:19:17.599Z,1025.73
2017-04-04T03:20:26.533Z,1025.7
2017-04-04T03:21:35.420Z,1025.71
2017-04-04T03:22:44.630Z,1025.68
2017-04-04T03:23:53.515Z,1025.67
2017-04-04T03:25:02.726Z,1025.68
2017-04-04T03:26:11.761Z,1025.68
2017-04-04T03:27:20.645Z,1025.66
2017-04-04T03:28:30.187Z,1025.68
2017-04-04T03:29:39.081Z,1025.69
2017-04-04T03:30:48.291Z,1025.67
2017-04-04T03:31:57.327Z,1025.66
2017-04-04T03:33:06.213Z,1025.64
2017-04-04T03:34:15.103Z,1025.66
2017-04-04T03:35:23.994Z,1025.66
2017-04-04T03:36:32.886Z,1025.62
2017-04-04T03:37:41.882Z,1025.64
2017-04-04T03:38:50.765Z,1025.63
2017-04-04T03:39:59.979Z,1025.63
2017-04-04T03:41:08.867Z,1025.64
2017-04-04T03:42:17.759Z,1025.64
2017-04-04T03:43:26.650Z,1025.63
2017-04-04T03:44:35.541Z,1025.62
2017-04-04T03:45:44.427Z,1025.62
2017-04-04T03:46:53.346Z,1025.67
2017-04-04T03:48:02.565Z,1025.59
2017-04-04T03:49:11.599Z,1025.6
2017-04-04T03:50:20.482Z,1025.6
2017-04-04T03:51:29.687Z,1025.63
2017-04-04T03:52:38.576Z,1025.64
2017-04-04T03:53:47.461Z,1025.59
2017-04-04T03:54:56.653Z,1025.59
2017-04-04T03:56:05.543Z,1025.58
2017-04-04T03:57:14.428Z,1025.59
2017-04-04T03:58:23.313Z,1025.56
2017-04-04T03:59:32.202Z,1025.56
2017-04-04T04:00:41.196Z,1025.55
2017-04-04T04:01:50.463Z,1025.55
2017-04-04T04:02:59.682Z,1025.58
2017-04-04T04:04:08.570Z,1025.58
2017-04-04T04:05:17.453Z,1025.58
2017-04-04T04:06:26.911Z,1025.59
2017-04-04T04:07:35.795Z,1025.59
2017-04-04T04:08:45.010Z,1025.58
2017-04-04T04:09:54.219Z,1025.57
2017-04-04T04:11:03.105Z,1025.54
2017-04-04T04:12:12.142Z,1025.57
2017-04-04T04:13:21.027Z,1025.51
2017-04-04T04:14:29.914Z,1025.54
2017-04-04T04:15:38.798Z,1025.55
2017-04-04T04:16:47.683Z,1025.57
2017-04-04T04:17:57.050Z,1025.56
2017-04-04T04:19:05.937Z,1025.55
2017-04-04T04:20:14.835Z,1025.55
2017-04-04T04:21:24.701Z,1025.59
2017-04-04T04:22:33.911Z,1025.6
2017-04-04T04:23:43.201Z,1025.58
2017-04-04T04:24:52.086Z,1025.59
2017-04-04T04:26:00.967Z,1025.55
2017-04-04T04:27:09.854Z,1025.58
2017-04-04T04:28:18.740Z,1025.57
2017-04-04T04:29:27.875Z,1025.57
2017-04-04T04:30:37.084Z,1025.57
2017-04-04T04:31:46.292Z,1025.6
2017-04-04T04:32:55.182Z,1025.6
2017-04-04T04:34:04.389Z,1025.57
2017-04-04T04:35:13.425Z,1025.56
2017-04-04T04:36:22.309Z,1025.54
2017-04-04T04:37:31.516Z,1025.5
2017-04-04T04:38:40.395Z,1025.54
2017-04-04T04:39:49.287Z,1025.53
2017-04-04T04:40:58.322Z,1025.51
2017-04-04T04:42:07.209Z,1025.53
2017-04-04T04:43:16.419Z,1025.54
2017-04-04T04:44:25.299Z,1025.53
2017-04-04T04:45:34.184Z,1025.57
2017-04-04T04:46:43.492Z,1025.52
2017-04-04T04:47:52.375Z,1025.51
2017-04-04T04:49:01.263Z,1025.52
2017-04-04T04:50:10.155Z,1025.54
2017-04-04T04:51:19.041Z,1025.54
2017-04-04T04:52:28.131Z,1025.52
2017-04-04T04:53:37.016Z,1025.47
2017-04-04T04:54:45.897Z,1025.56
2017-04-04T04:55:54.776Z,1025.56
2017-04-04T04:57:03.985Z,1025.53
2017-04-04T04:58:12.971Z,1025.53
2017-04-04T04:59:22.178Z,1025.54
2017-04-04T05:00:31.391Z,1025.55
2017-04-04T05:01:41.250Z,1025.59
2017-04-04T05:02:50.468Z,1025.58
2017-04-04T05:03:59.503Z,1025.6
2017-04-04T05:05:09.044Z,1025.58
2017-04-04T05:06:17.934Z,1025.53
2017-04-04T05:07:27.148Z,1025.55
2017-04-04T05:08:36.358Z,1025.53
2017-04-04T05:09:45.441Z,1025.54
2017-04-04T05:10:54.327Z,1025.51
2017-04-04T05:12:03.212Z,1025.48
2017-04-04T05:13:12.096Z,1025.54
2017-04-04T05:14:20.982Z,1025.51
2017-04-04T05:15:30.167Z,1025.55
2017-04-04T05:16:39.054Z,1025.54
2017-04-04T05:17:47.946Z,1025.52
2017-04-04T05:18:56.833Z,1025.55
2017-04-04T05:20:05.724Z,1025.55
2017-04-04T05:21:14.909Z,1025.53
2017-04-04T05:22:23.801Z,1025.58
2017-04-04T05:23:32.689Z,1025.59
2017-04-04T05:24:41.575Z,1025.62
2017-04-04T05:25:50.785Z,1025.65
2017-04-04T05:26:59.671Z,1025.65
2017-04-04T05:28:09.209Z,1025.65
2017-04-04T05:29:18.100Z,1025.67
2017-04-04T05:30:27.309Z,1025.68
2017-04-04T05:31:36.522Z,1025.67
2017-04-04T05:32:45.581Z,1025.64
2017-04-04T05:33:54.807Z,1025.68
2017-04-04T05:35:04.019Z,1025.67
2017-04-04T05:36:12.916Z,1025.69
2017-04-04T05:37:22.127Z,1025.69
2017-04-04T05:38:31.811Z,1025.67
2017-04-04T05:39:41.020Z,1025.67
2017-04-04T05:40:50.551Z,1025.68
2017-04-04T05:41:59.433Z,1025.66
2017-04-04T05:43:08.644Z,1025.67
2017-04-04T05:44:17.635Z,1025.68
2017-04-04T05:45:26.519Z,1025.68
2017-04-04T05:46:35.730Z,1025.66
2017-04-04T05:47:44.620Z,1025.75
2017-04-04T05:48:53.504Z,1025.73
2017-04-04T05:50:03.063Z,1025.74
2017-04-04T05:51:11.949Z,1025.77
2017-04-04T05:52:21.159Z,1025.69
2017-04-04T05:53:30.045Z,1025.69
2017-04-04T05:54:39.256Z,1025.69
2017-04-04T05:55:48.296Z,1025.69
2017-04-04T05:56:57.834Z,1025.71
2017-04-04T05:58:07.084Z,1025.78
2017-04-04T05:59:15.972Z,1025.74
2017-04-04T06:00:24.858Z,1025.78
2017-04-04T06:01:33.797Z,1025.78
2017-04-04T06:02:43.051Z,1025.77
2017-04-04T06:03:51.942Z,1025.79
2017-04-04T06:05:01.152Z,1025.84
2017-04-04T06:06:10.689Z,1025.81
2017-04-04T06:07:20.003Z,1025.82
2017-04-04T06:08:28.897Z,1025.82
2017-04-04T06:09:38.111Z,1025.83
2017-04-04T06:10:47.320Z,1025.85
2017-04-04T06:11:56.861Z,1025.83
2017-04-04T06:13:06.218Z,1025.84
2017-04-04T06:14:15.436Z,1025.83
2017-04-04T06:15:25.302Z,1025.86
2017-04-04T06:16:34.193Z,1025.88
2017-04-04T06:17:43.411Z,1025.88
2017-04-04T06:18:52.774Z,1025.91
2017-04-04T06:20:01.987Z,1025.91
2017-04-04T06:21:11.204Z,1025.89
2017-04-04T06:22:20.109Z,1025.87
2017-04-04T06:23:29.365Z,1025.9
2017-04-04T06:24:38.548Z,1025.9
2017-04-04T06:25:47.441Z,1025.95
2017-04-04T06:26:56.332Z,1025.91
2017-04-04T06:28:05.541Z,1025.94
2017-04-04T06:29:14.425Z,1025.96
2017-04-04T06:30:23.799Z,1025.97
2017-04-04T06:31:33.336Z,1026.02
2017-04-04T06:32:42.224Z,1026.04
2017-04-04T06:33:51.445Z,1025.99
2017-04-04T06:35:00.331Z,1026
2017-04-04T06:36:09.745Z,1026
2017-04-04T06:37:18.643Z,1026.05
2017-04-04T06:38:27.532Z,1026.04
2017-04-04T06:39:36.422Z,1026.1
2017-04-04T06:40:45.312Z,1026.1
2017-04-04T06:41:54.248Z,1026.18
2017-04-04T06:43:03.137Z,1026.2
2017-04-04T06:44:12.067Z,1026.24
2017-04-04T06:45:20.959Z,1026.18
2017-04-04T06:46:29.848Z,1026.17
2017-04-04T06:47:38.894Z,1026.15
2017-04-04T06:48:47.826Z,1026.14
2017-04-04T06:49:57.048Z,1026.1
2017-04-04T06:51:05.934Z,1026.12
2017-04-04T06:52:14.821Z,1026.1
2017-04-04T06:53:24.431Z,1026.1
2017-04-04T06:54:33.641Z,1026.12
2017-04-04T06:55:42.537Z,1026.13
2017-04-04T06:56:51.470Z,1026.1
2017-04-04T06:58:00.723Z,1026.11
2017-04-04T06:59:09.712Z,1026.17
2017-04-04T07:00:18.597Z,1026.17
2017-04-04T07:01:27.486Z,1026.12
2017-04-04T07:02:36.702Z,1026.14
2017-04-04T07:03:46.240Z,1026.16
2017-04-04T07:04:55.862Z,1026.15
2017-04-04T07:06:04.754Z,1026.12
2017-04-04T07:07:13.643Z,1026.11
2017-04-04T07:08:22.530Z,1026.14
2017-04-04T07:09:31.423Z,1026.17
2017-04-04T07:10:40.359Z,1026.15
2017-04-04T07:11:49.249Z,1026.15
2017-04-04T07:12:58.137Z,1026.16
2017-04-04T07:14:07.678Z,1026.2
2017-04-04T07:15:16.564Z,1026.21
2017-04-04T07:16:25.984Z,1026.21
2017-04-04T07:17:34.877Z,1026.25
2017-04-04T07:18:43.772Z,1026.19
2017-04-04T07:19:52.658Z,1026.23
2017-04-04T07:21:01.549Z,1026.22
2017-04-04T07:22:10.961Z,1026.16
2017-04-04T07:23:20.193Z,1026.19
2017-04-04T07:24:29.405Z,1026.2
2017-04-04T07:25:38.291Z,1026.17
2017-04-04T07:26:47.178Z,1026.21
2017-04-04T07:27:56.316Z,1026.19
2017-04-04T07:29:05.207Z,1026.24
2017-04-04T07:30:14.429Z,1026.19
2017-04-04T07:31:23.320Z,1026.19
2017-04-04T07:32:32.245Z,1026.22
2017-04-04T07:33:41.181Z,1026.2
2017-04-04T07:34:50.751Z,1026.17
2017-04-04T07:35:59.647Z,1026.12
2017-04-04T07:37:08.858Z,1026.14
2017-04-04T07:38:17.745Z,1026.12
2017-04-04T07:39:26.784Z,1026.1
2017-04-04T07:40:35.999Z,1026.11
2017-04-04T07:41:44.896Z,1026.15
2017-04-04T07:42:53.820Z,1026.14
2017-04-04T07:44:03.080Z,1026.16
2017-04-04T07:45:12.829Z,1026.15
2017-04-04T07:46:22.043Z,1026.14
2017-04-04T07:47:30.930Z,1026.18
2017-04-04T07:48:39.814Z,1026.11
2017-04-04T07:49:48.704Z,1026.15
2017-04-04T07:50:58.068Z,1026.17
2017-04-04T07:52:07.611Z,1026.17
2017-04-04T07:53:16.498Z,1026.2
2017-04-04T07:54:26.033Z,1026.19
2017-04-04T07:55:35.247Z,1026.24
2017-04-04T07:56:44.611Z,1026.28
2017-04-04T07:57:53.498Z,1026.26
2017-04-04T07:59:02.713Z,1026.22
2017-04-04T08:00:11.606Z,1026.26
2017-04-04T08:01:20.823Z,1026.22
2017-04-04T08:02:30.618Z,1026.23
2017-04-04T08:03:39.507Z,1026.19
2017-04-04T08:04:48.398Z,1026.22
2017-04-04T08:05:57.936Z,1026.24
2017-04-04T08:07:06.831Z,1026.25
2017-04-04T08:08:15.870Z,1026.27
2017-04-04T08:09:24.760Z,1026.28
2017-04-04T08:10:33.973Z,1026.29
2017-04-04T08:11:42.864Z,1026.3
2017-04-04T08:12:51.762Z,1026.28
2017-04-04T08:14:01.375Z,1026.33
2017-04-04T08:15:10.265Z,1026.3
2017-04-04T08:16:19.480Z,1026.3
2017-04-04T08:17:28.369Z,1026.37
2017-04-04T08:18:37.256Z,1026.38
2017-04-04T08:19:46.394Z,1026.32
2017-04-04T08:20:55.611Z,1026.35
2017-04-04T08:22:04.505Z,1026.35
2017-04-04T08:23:13.725Z,1026.37
2017-04-04T08:24:22.614Z,1026.34
2017-04-04T08:25:31.561Z,1026.37
2017-04-04T08:26:40.448Z,1026.37
2017-04-04T08:27:49.341Z,1026.37
2017-04-04T08:28:58.238Z,1026.38
2017-04-04T08:30:07.453Z,1026.44
2017-04-04T08:31:16.522Z,1026.39
2017-04-04T08:32:26.066Z,1026.43
2017-04-04T08:33:34.952Z,1026.47
2017-04-04T08:34:43.841Z,1026.45
2017-04-04T08:35:53.056Z,1026.51
2017-04-04T08:37:02.092Z,1026.44
2017-04-04T08:38:10.979Z,1026.5
2017-04-04T08:39:19.873Z,1026.48
2017-04-04T08:40:29.100Z,1026.43
2017-04-04T08:41:38.026Z,1026.45
2017-04-04T08:42:47.170Z,1026.51
2017-04-04T08:43:56.379Z,1026.51
2017-04-04T08:45:05.266Z,1026.54
2017-04-04T08:46:14.525Z,1026.6
2017-04-04T08:47:23.783Z,1026.63
2017-04-04T08:48:32.875Z,1026.61
2017-04-04T08:49:41.761Z,1026.62
2017-04-04T08:50:50.978Z,1026.57
2017-04-04T08:51:59.870Z,1026.56
2017-04-04T08:53:08.765Z,1026.6
2017-04-04T08:54:18.555Z,1026.61
2017-04-04T08:55:27.772Z,1026.6
2017-04-04T08:56:36.663Z,1026.65
2017-04-04T08:57:45.887Z,1026.63
2017-04-04T08:58:55.103Z,1026.63
2017-04-04T09:00:04.797Z,1026.64
2017-04-04T09:01:14.016Z,1026.63
2017-04-04T09:02:23.563Z,1026.64
2017-04-04T09:03:32.474Z,1026.64
2017-04-04T09:04:41.366Z,1026.64
2017-04-04T09:05:50.732Z,1026.66
2017-04-04T09:07:00.287Z,1026.71
2017-04-04T09:08:09.829Z,1026.7
2017-04-04T09:09:19.372Z,1026.7
2017-04-04T09:10:28.609Z,1026.74
2017-04-04T09:11:37.809Z,1026.7
2017-04-04T09:12:47.681Z,1026.71
2017-04-04T09:13:56.899Z,1026.7
2017-04-04T09:15:05.798Z,1026.71
2017-04-04T09:16:14.697Z,1026.7
2017-04-04T09:17:24.119Z,1026.66
2017-04-04T09:18:33.010Z,1026.67
2017-04-04T09:19:41.902Z,1026.66
2017-04-04T09:20:50.803Z,1026.67
2017-04-04T09:21:59.694Z,1026.66
2017-04-04T09:23:09.066Z,1026.68
2017-04-04T09:24:18.285Z,1026.67
2017-04-04T09:25:27.177Z,1026.68
2017-04-04T09:26:36.391Z,1026.65
2017-04-04T09:27:45.317Z,1026.67
2017-04-04T09:28:54.214Z,1026.64
2017-04-04T09:30:03.105Z,1026.66
2017-04-04T09:31:11.998Z,1026.64
2017-04-04T09:32:20.887Z,1026.67
2017-04-04T09:33:29.774Z,1026.67
2017-04-04T09:34:38.718Z,1026.62
2017-04-04T09:35:48.267Z,1026.61
2017-04-04T09:36:57.159Z,1026.63
2017-04-04T09:38:06.056Z,1026.62
2017-04-04T09:39:14.958Z,1026.66
2017-04-04T09:40:24.013Z,1026.67
2017-04-04T09:41:32.911Z,1026.69
2017-04-04T09:42:42.126Z,1026.67
2017-04-04T09:43:51.020Z,1026.67
2017-04-04T09:44:59.909Z,1026.64
2017-04-04T09:46:09.184Z,1026.66
2017-04-04T09:47:18.077Z,1026.65
2017-04-04T09:48:27.012Z,1026.62
2017-04-04T09:49:35.905Z,1026.63
2017-04-04T09:50:44.803Z,1026.64
2017-04-04T09:51:54.070Z,1026.66
2017-04-04T09:53:03.290Z,1026.65
2017-04-04T09:54:12.509Z,1026.66
2017-04-04T09:55:21.406Z,1026.68
2017-04-04T09:56:30.303Z,1026.63
2017-04-04T09:57:39.344Z,1026.64
2017-04-04T09:58:48.233Z,1026.65
2017-04-04T09:59:57.124Z,1026.62
2017-04-04T10:01:06.344Z,1026.68
2017-04-04T10:02:15.232Z,1026.66
2017-04-04T10:03:24.274Z,1026.66
2017-04-04T10:04:33.497Z,1026.68
2017-04-04T10:05:42.394Z,1026.69
2017-04-04T10:06:51.288Z,1026.67
2017-04-04T10:08:00.503Z,1026.68
2017-04-04T10:09:09.871Z,1026.66
2017-04-04T10:10:19.086Z,1026.64
2017-04-04T10:11:28.300Z,1026.67
2017-04-04T10:12:37.515Z,1026.68
2017-04-04T10:13:46.445Z,1026.66
2017-04-04T10:14:55.386Z,1026.59
2017-04-04T10:16:04.281Z,1026.65
2017-04-04T10:17:13.180Z,1026.61
2017-04-04T10:18:22.405Z,1026.64
2017-04-04T10:19:31.300Z,1026.62
2017-04-04T10:20:40.441Z,1026.59
2017-04-04T10:21:49.660Z,1026.6
2017-04-04T10:22:58.881Z,1026.54
2017-04-04T10:24:07.770Z,1026.53
2017-04-04T10:25:16.663Z,1026.56
2017-04-04T10:26:26.245Z,1026.44
2017-04-04T10:27:35.145Z,1026.48
2017-04-04T10:28:44.041Z,1026.51
2017-04-04T10:29:52.931Z,1026.53
2017-04-04T10:31:01.822Z,1026.49
2017-04-04T10:32:10.868Z,1026.49
2017-04-04T10:33:19.762Z,1026.48
2017-04-04T10:34:28.654Z,1026.48
2017-04-04T10:35:37.546Z,1026.49
2017-04-04T10:36:46.440Z,1026.48
2017-04-04T10:37:55.485Z,1026.52
2017-04-04T10:39:04.378Z,1026.53
2017-04-04T10:40:13.272Z,1026.52
2017-04-04T10:41:22.534Z,1026.58
2017-04-04T10:42:32.078Z,1026.5
2017-04-04T10:43:41.070Z,1026.46
2017-04-04T10:44:49.962Z,1026.47
2017-04-04T10:45:58.855Z,1026.46
2017-04-04T10:47:07.752Z,1026.47
2017-04-04T10:48:16.641Z,1026.48
2017-04-04T10:49:25.685Z,1026.46
2017-04-04T10:50:34.581Z,1026.5
2017-04-04T10:51:43.480Z,1026.48
2017-04-04T10:52:53.022Z,1026.46
2017-04-04T10:54:01.911Z,1026.46
2017-04-04T10:55:11.130Z,1026.41
2017-04-04T10:56:20.024Z,1026.4
2017-04-04T10:57:29.571Z,1026.43
2017-04-04T10:58:38.469Z,1026.36
2017-04-04T10:59:47.359Z,1026.37
2017-04-04T11:00:56.847Z,1026.38
2017-04-04T11:02:05.747Z,1026.41
2017-04-04T11:03:14.641Z,1026.41
2017-04-04T11:04:23.536Z,1026.37
2017-04-04T11:05:32.426Z,1026.36
2017-04-04T11:06:41.676Z,1026.33
2017-04-04T11:07:50.892Z,1026.27
2017-04-04T11:08:59.784Z,1026.28
2017-04-04T11:10:08.675Z,1026.32
2017-04-04T11:11:17.566Z,1026.32
2017-04-04T11:12:26.564Z,1026.29
2017-04-04T11:13:35.465Z,1026.3
2017-04-04T11:14:44.357Z,1026.23
2017-04-04T11:15:53.248Z,1026.27
2017-04-04T11:17:02.144Z,1026.22
2017-04-04T11:18:11.100Z,1026.22
2017-04-04T11:19:19.991Z,1026.18
2017-04-04T11:20:28.876Z,1026.19
2017-04-04T11:21:38.093Z,1026.13
2017-04-04T11:22:46.985Z,1026.19
2017-04-04T11:23:56.282Z,1026.18
2017-04-04T11:25:05.826Z,1026.18
2017-04-04T11:26:14.720Z,1026.21
2017-04-04T11:27:23.944Z,1026.2
2017-04-04T11:28:32.834Z,1026.18
2017-04-04T11:29:41.975Z,1026.11
2017-04-04T11:30:50.869Z,1026.12
2017-04-04T11:31:59.763Z,1026.15
2017-04-04T11:33:08.982Z,1026.12
2017-04-04T11:34:18.198Z,1026.12
2017-04-04T11:35:27.614Z,1026.07
2017-04-04T11:36:36.829Z,1026.08
2017-04-04T11:37:45.764Z,1026.05
2017-04-04T11:38:54.982Z,1026.13
2017-04-04T11:40:04.200Z,1026.1
2017-04-04T11:41:13.902Z,1026.11
2017-04-04T11:42:22.797Z,1026.11
2017-04-04T11:43:31.691Z,1026.08
2017-04-04T11:44:40.915Z,1026.06
2017-04-04T11:45:50.134Z,1026.08
2017-04-04T11:46:59.125Z,1026.06
2017-04-04T11:48:08.023Z,1026.06
2017-04-04T11:49:17.246Z,1026.07
2017-04-04T11:50:26.137Z,1026.07
2017-04-04T11:51:35.356Z,1026.06
2017-04-04T11:52:44.551Z,1026.02
2017-04-04T11:53:53.441Z,1026.02
2017-04-04T11:55:02.336Z,1026.05
2017-04-04T11:56:11.232Z,1026.01
2017-04-04T11:57:20.131Z,1025.99
2017-04-04T11:58:29.505Z,1025.96
2017-04-04T11:59:38.410Z,1025.96
2017-04-04T12:00:47.632Z,1025.95
2017-04-04T12:01:56.854Z,1025.94
2017-04-04T12:03:06.073Z,1025.96
2017-04-04T12:04:15.216Z,1025.97
2017-04-04T12:05:24.109Z,1025.98
2017-04-04T12:06:33.008Z,1025.92
2017-04-04T12:07:42.552Z,1025.98
2017-04-04T12:08:51.446Z,1025.96
2017-04-04T12:10:00.492Z,1026.01
2017-04-04T12:11:09.389Z,1025.94
2017-04-04T12:12:18.286Z,1025.98
2017-04-04T12:13:27.190Z,1025.89
2017-04-04T12:14:36.089Z,1025.92
2017-04-04T12:15:45.035Z,1025.87
2017-04-04T12:16:53.935Z,1025.9
2017-04-04T12:18:03.165Z,1025.91
2017-04-04T12:19:12.065Z,1025.93
2017-04-04T12:20:20.962Z,1025.94
2017-04-04T12:21:30.237Z,1025.88
2017-04-04T12:22:39.145Z,1025.88
2017-04-04T12:23:48.046Z,1025.86
2017-04-04T12:24:56.947Z,1025.83
2017-04-04T12:26:06.176Z,1025.82
2017-04-04T12:27:15.232Z,1025.83
2017-04-04T12:28:24.137Z,1025.85
2017-04-04T12:29:33.048Z,1025.8
2017-04-04T12:30:41.948Z,1025.8
2017-04-04T12:31:50.855Z,1025.88
2017-04-04T12:33:00.012Z,1025.85
2017-04-04T12:34:08.920Z,1025.86
2017-04-04T12:35:18.150Z,1025.82
2017-04-04T12:36:27.060Z,1025.78
2017-04-04T12:37:35.974Z,1025.76
2017-04-04T12:38:45.032Z,1025.78
2017-04-04T12:39:53.960Z,1025.76
2017-04-04T12:41:02.874Z,1025.78
2017-04-04T12:42:11.804Z,1025.76
2017-04-04T12:43:21.133Z,1025.75
2017-04-04T12:44:30.510Z,1025.77
2017-04-04T12:45:39.421Z,1025.73
2017-04-04T12:46:48.652Z,1025.73
2017-04-04T12:47:57.879Z,1025.66
2017-04-04T12:49:07.136Z,1025.66
2017-04-04T12:50:16.678Z,1025.63
2017-04-04T12:51:26.245Z,1025.66
2017-04-04T12:52:36.129Z,1025.66
2017-04-04T12:53:45.688Z,1025.68
2017-04-04T12:54:55.243Z,1025.7
2017-04-04T12:56:05.170Z,1025.71
2017-04-04T12:57:14.722Z,1025.68
2017-04-04T12:58:24.924Z,1025.64
2017-04-04T12:59:35.138Z,1025.69
2017-04-04T13:00:45.022Z,1025.66
2017-04-04T13:01:54.079Z,1025.67
2017-04-04T13:03:03.312Z,1025.74
2017-04-04T13:04:12.540Z,1025.68
2017-04-04T13:05:21.801Z,1025.68
2017-04-04T13:06:31.038Z,1025.66
2017-04-04T13:07:40.519Z,1025.66
2017-04-04T13:08:49.742Z,1025.75
2017-04-04T13:09:58.643Z,1025.68
2017-04-04T13:11:08.195Z,1025.7
2017-04-04T13:12:17.095Z,1025.64
2017-04-04T13:13:26.393Z,1025.67
2017-04-04T13:14:35.297Z,1025.69
2017-04-04T13:15:44.203Z,1025.66
2017-04-04T13:16:53.105Z,1025.67
2017-04-04T13:18:02.376Z,1025.62
2017-04-04T13:19:11.755Z,1025.68
2017-04-04T13:20:20.985Z,1025.65
2017-04-04T13:21:29.889Z,1025.62
2017-04-04T13:22:39.118Z,1025.59
2017-04-04T13:23:48.397Z,1025.57
2017-04-04T13:24:58.198Z,1025.54
2017-04-04T13:26:07.436Z,1025.55
2017-04-04T13:27:16.338Z,1025.59
2017-04-04T13:28:25.569Z,1025.5
2017-04-04T13:29:34.472Z,1025.54
2017-04-04T13:30:43.431Z,1025.53
2017-04-04T13:31:52.981Z,1025.56
2017-04-04T13:33:01.895Z,1025.6
2017-04-04T13:34:10.808Z,1025.55
2017-04-04T13:35:19.720Z,1025.58
2017-04-04T13:36:28.674Z,1025.56
2017-04-04T13:37:37.910Z,1025.49
2017-04-04T13:38:46.810Z,1025.5
2017-04-04T13:39:56.036Z,1025.45
2017-04-04T13:41:04.971Z,1025.46
2017-04-04T13:42:14.126Z,1025.45
2017-04-04T13:43:23.348Z,1025.49
2017-04-04T13:44:32.253Z,1025.5
2017-04-04T13:45:41.156Z,1025.52
2017-04-04T13:46:50.056Z,1025.52
2017-04-04T13:47:59.010Z,1025.53
2017-04-04T13:49:08.235Z,1025.48
2017-04-04T13:50:17.138Z,1025.44
2017-04-04T13:51:26.040Z,1025.42
2017-04-04T13:52:35.267Z,1025.45
2017-04-04T13:53:44.330Z,1025.49
2017-04-04T13:54:53.236Z,1025.51
2017-04-04T13:56:02.146Z,1025.49
2017-04-04T13:57:11.094Z,1025.45
2017-04-04T13:58:20.327Z,1025.48
2017-04-04T13:59:29.386Z,1025.55
2017-04-04T14:00:38.634Z,1025.56
2017-04-04T14:01:47.554Z,1025.48
2017-04-04T14:02:56.465Z,1025.49
2017-04-04T14:04:05.374Z,1025.46
2017-04-04T14:05:14.662Z,1025.44